createdAt,value
2019-03-04T00:01:31.796Z,99001.94
2019-03-04T00:04:00.080Z,98991.85
2019-03-04T00:06:28.372Z,98989.59
2019-03-04T00:08:56.648Z,98977.86
2019-03-04T00:11:25.002Z,98977.86
2019-03-04T00:13:53.305Z,98973.82
2019-03-04T00:16:21.595Z,98964.56
2019-03-04T00:18:49.882Z,98970.33
2019-03-04T00:21:18.180Z,98952.41
2019-03-04T00:23:46.449Z,98955.39
2019-03-04T00:26:14.745Z,98965.23
2019-03-04T00:28:43.013Z,98956.56
2019-03-04T00:31:11.303Z,98941.37
2019-03-04T00:33:40.572Z,98939.36
2019-03-04T00:36:08.866Z,98932.12
2019-03-04T00:38:37.147Z,98922.58
2019-03-04T00:41:05.440Z,98933.43
2019-03-04T00:43:33.703Z,98924.88
2019-03-04T00:46:02.774Z,98920.27
2019-03-04T00:48:31.042Z,98936.88
2019-03-04T00:50:59.334Z,98938.07
2019-03-04T00:53:27.622Z,98924.89
2019-03-04T00:55:55.914Z,98928.93
2019-03-04T00:58:24.199Z,98930.95
2019-03-04T01:00:52.480Z,98929.76
2019-03-04T01:03:20.769Z,98920.52
2019-03-04T01:05:49.067Z,98930.00
2019-03-04T01:08:17.346Z,98922.30
2019-03-04T01:10:45.728Z,98937.23
2019-03-04T01:13:14.025Z,98917.53
2019-03-04T01:15:42.295Z,98911.62
2019-03-04T01:18:10.600Z,98915.64
2019-03-04T01:20:38.906Z,98917.07
2019-03-04T01:23:07.188Z,98919.45
2019-03-04T01:25:35.485Z,98920.80
2019-03-04T01:28:03.762Z,98922.34
2019-03-04T01:30:32.076Z,98937.88
2019-03-04T01:33:00.340Z,98915.92
2019-03-04T01:35:28.641Z,98909.88
2019-03-04T01:37:56.937Z,98904.62
2019-03-04T01:40:25.221Z,98884.38
2019-03-04T01:42:53.512Z,98878.20
2019-03-04T01:45:21.785Z,98886.58
2019-03-04T01:47:50.065Z,98888.99
2019-03-04T01:50:18.708Z,98894.92
2019-03-04T01:52:47.328Z,98880.16
2019-03-04T01:55:17.127Z,98843.91
2019-03-04T01:57:45.416Z,98843.91
2019-03-04T02:00:18.122Z,98833.84
2019-03-04T02:02:46.418Z,98833.84
2019-03-04T02:05:14.872Z,98842.63
2019-03-04T02:07:43.231Z,98826.26
2019-03-04T02:10:14.127Z,98822.93
2019-03-04T02:12:42.417Z,98830.36
2019-03-04T02:15:13.158Z,98811.89
2019-03-04T02:17:41.452Z,98815.68
2019-03-04T02:20:14.178Z,98806.25
2019-03-04T02:22:42.528Z,98803.98
2019-03-04T02:25:15.506Z,98787.63
2019-03-04T02:27:46.531Z,98793.70
2019-03-04T02:30:18.098Z,98783.30
2019-03-04T02:32:46.361Z,98789.35
2019-03-04T02:35:14.644Z,98787.34
2019-03-04T02:37:42.934Z,98780.92
2019-03-04T02:40:11.510Z,98766.48
2019-03-04T02:42:39.799Z,98766.36
2019-03-04T02:45:14.086Z,98767.30
2019-03-04T02:47:42.386Z,98762.33
2019-03-04T02:50:10.653Z,98748.91
2019-03-04T02:52:38.930Z,98752.06
2019-03-04T02:55:07.880Z,98738.69
2019-03-04T02:57:36.143Z,98712.79
2019-03-04T03:00:10.336Z,98712.91
2019-03-04T03:02:38.605Z,98702.41
2019-03-04T03:05:08.133Z,98699.45
2019-03-04T03:07:36.423Z,98697.09
2019-03-04T03:10:07.733Z,98684.78
2019-03-04T03:12:36.061Z,98677.62
2019-03-04T03:15:06.290Z,98677.64
2019-03-04T03:17:34.568Z,98678.51
2019-03-04T03:20:02.842Z,98675.36
2019-03-04T03:22:31.120Z,98676.38
2019-03-04T03:24:59.394Z,98662.59
2019-03-04T03:27:27.679Z,98658.39
2019-03-04T03:29:55.962Z,98641.02
2019-03-04T03:32:24.250Z,98632.11
2019-03-04T03:34:52.528Z,98622.27
2019-03-04T03:37:20.812Z,98617.93
2019-03-04T03:39:49.089Z,98603.83
2019-03-04T03:42:19.008Z,98604.09
2019-03-04T03:44:47.418Z,98592.61
2019-03-04T03:47:15.717Z,98606.31
2019-03-04T03:49:44.012Z,98593.52
2019-03-04T03:52:12.268Z,98591.27
2019-03-04T03:54:40.598Z,98598.14
2019-03-04T03:57:08.887Z,98607.84
2019-03-04T03:59:37.209Z,98605.58
2019-03-04T04:02:05.516Z,98599.80
2019-03-04T04:04:33.795Z,98590.41
2019-03-04T04:07:02.065Z,98593.27
2019-03-04T04:09:30.333Z,98593.70
2019-03-04T04:11:58.609Z,98595.28
2019-03-04T04:14:29.209Z,98595.28
2019-03-04T04:16:56.876Z,98599.80
2019-03-04T04:19:25.158Z,98582.70
2019-03-04T04:21:53.430Z,98583.80
2019-03-04T04:24:21.696Z,98574.34
2019-03-04T04:26:49.978Z,98562.11
2019-03-04T04:29:18.258Z,98552.11
2019-03-04T04:31:46.529Z,98540.63
2019-03-04T04:34:14.801Z,98529.83
2019-03-04T04:36:43.077Z,98526.40
2019-03-04T04:39:11.361Z,98524.48
2019-03-04T04:41:39.687Z,98495.02
2019-03-04T04:44:07.918Z,98488.01
2019-03-04T04:46:52.735Z,98485.80
2019-03-04T04:49:20.994Z,98482.78
2019-03-04T04:51:49.279Z,98474.36
2019-03-04T04:54:17.538Z,98445.83
2019-03-04T04:56:45.831Z,98427.14
2019-03-04T04:59:14.165Z,98435.94
2019-03-04T05:01:42.436Z,98431.69
2019-03-04T05:04:10.712Z,98429.13
2019-03-04T05:06:38.976Z,98416.49
2019-03-04T05:09:07.270Z,98413.33
2019-03-04T05:11:35.551Z,98399.17
2019-03-04T05:14:03.842Z,98396.84
2019-03-04T05:16:32.104Z,98395.19
2019-03-04T05:19:00.384Z,98384.87
2019-03-04T05:21:28.652Z,98395.36
2019-03-04T05:23:56.931Z,98397.73
2019-03-04T05:26:25.219Z,98397.83
2019-03-04T05:28:53.504Z,98393.87
2019-03-04T05:31:21.771Z,98385.94
2019-03-04T05:33:50.049Z,98378.38
2019-03-04T05:36:18.305Z,98365.73
2019-03-04T05:38:46.574Z,98348.67
2019-03-04T05:41:14.884Z,98327.62
2019-03-04T05:43:43.378Z,98322.33
2019-03-04T05:46:11.660Z,98322.61
2019-03-04T05:48:39.953Z,98300.36
2019-03-04T05:51:08.239Z,98293.73
2019-03-04T05:53:36.512Z,98277.83
2019-03-04T05:56:04.851Z,98260.45
2019-03-04T05:58:33.126Z,98260.89
2019-03-04T06:01:22.374Z,98240.16
2019-03-04T06:03:55.754Z,98224.43
2019-03-04T06:06:41.839Z,98226.53
2019-03-04T06:09:11.761Z,98219.22
2019-03-04T06:11:40.035Z,98208.13
2019-03-04T06:14:09.247Z,98208.13
2019-03-04T06:16:46.811Z,98206.71
2019-03-04T06:19:07.600Z,98199.43
2019-03-04T06:21:35.874Z,98197.84
2019-03-04T06:24:04.166Z,98200.31
2019-03-04T06:26:32.433Z,98196.13
2019-03-04T06:29:00.715Z,98193.19
2019-03-04T06:31:28.971Z,98190.64
2019-03-04T06:33:57.256Z,98188.23
2019-03-04T06:36:25.533Z,98190.30
2019-03-04T06:38:53.851Z,98173.25
2019-03-04T06:41:22.117Z,98178.67
2019-03-04T06:43:50.387Z,98173.05
2019-03-04T06:46:18.656Z,98157.33
2019-03-04T06:48:46.915Z,98163.03
2019-03-04T06:51:21.096Z,98152.58
2019-03-04T06:54:00.888Z,98150.45
2019-03-04T06:56:32.343Z,98137.12
2019-03-04T06:59:12.324Z,98129.09
2019-03-04T07:01:58.434Z,98126.33
2019-03-04T07:04:29.877Z,98103.41
2019-03-04T07:06:58.171Z,98100.25
2019-03-04T07:09:27.183Z,98096.83
2019-03-04T07:11:55.459Z,98089.95
2019-03-04T07:14:23.732Z,98084.25
2019-03-04T07:16:52.007Z,98072.95
2019-03-04T07:19:20.277Z,98079.02
2019-03-04T07:21:48.545Z,98060.06
2019-03-04T07:24:16.844Z,98070.09
2019-03-04T07:26:45.113Z,98058.40
2019-03-04T07:29:15.077Z,98055.72
2019-03-04T07:31:43.462Z,98054.00
2019-03-04T07:34:12.574Z,98050.52
2019-03-04T07:36:40.859Z,98044.87
2019-03-04T07:39:09.189Z,98037.77
2019-03-04T07:41:37.485Z,98027.27
2019-03-04T07:44:05.760Z,98012.14
2019-03-04T07:46:34.052Z,98005.47
2019-03-04T07:49:02.318Z,97987.19
2019-03-04T07:51:30.606Z,97992.97
2019-03-04T07:53:58.870Z,98000.23
2019-03-04T07:56:27.160Z,97996.95
2019-03-04T07:58:55.431Z,97993.95
2019-03-04T08:01:23.713Z,97981.86
2019-03-04T08:03:52.004Z,97978.62
2019-03-04T08:06:20.266Z,97978.41
2019-03-04T08:09:07.935Z,97968.48
2019-03-04T08:11:54.013Z,97957.44
2019-03-04T08:14:22.283Z,97951.64
2019-03-04T08:16:50.556Z,97939.43
2019-03-04T08:19:18.812Z,97942.71
2019-03-04T08:21:47.104Z,97927.36
2019-03-04T08:24:15.392Z,97936.84
2019-03-04T08:26:43.644Z,97926.88
2019-03-04T08:29:12.190Z,97922.90
2019-03-04T08:31:41.211Z,97915.75
2019-03-04T08:34:09.483Z,97898.48
2019-03-04T08:36:37.762Z,97894.72
2019-03-04T08:39:07.692Z,97893.11
2019-03-04T08:41:36.004Z,97881.72
2019-03-04T08:44:04.262Z,97878.80
2019-03-04T08:46:32.558Z,97878.80
2019-03-04T08:49:00.819Z,97877.11
2019-03-04T08:51:29.106Z,97862.78
2019-03-04T08:53:57.367Z,97859.67
2019-03-04T08:56:25.651Z,97870.62
2019-03-04T08:58:53.912Z,97878.12
2019-03-04T09:01:22.198Z,97893.26
2019-03-04T09:03:50.475Z,97900.56
2019-03-04T09:06:18.766Z,97910.52
2019-03-04T09:08:47.033Z,97898.64
2019-03-04T09:11:15.316Z,97899.02
2019-03-04T09:13:44.547Z,97934.41
2019-03-04T09:16:12.818Z,98013.80
2019-03-04T09:18:41.089Z,98057.41
2019-03-04T09:21:09.366Z,98055.15
2019-03-04T09:23:37.642Z,98056.04
2019-03-04T09:26:08.731Z,98060.88
2019-03-04T09:28:37.000Z,98040.31
2019-03-04T09:31:05.277Z,98042.75
2019-03-04T09:33:33.576Z,98070.28
2019-03-04T09:36:01.847Z,98051.88
2019-03-04T09:38:30.132Z,98011.50
2019-03-04T09:40:58.398Z,98013.14
2019-03-04T09:43:26.667Z,98027.41
2019-03-04T09:45:54.939Z,98014.66
2019-03-04T09:48:23.205Z,98000.34
2019-03-04T09:50:51.471Z,97976.54
2019-03-04T09:53:19.730Z,97985.61
2019-03-04T09:55:47.999Z,97998.35
2019-03-04T09:58:16.286Z,97991.06
2019-03-04T10:01:02.581Z,97977.22
2019-03-04T10:03:43.046Z,97980.77
2019-03-04T10:06:20.192Z,97975.44
2019-03-04T10:09:08.888Z,97952.53
2019-03-04T10:11:51.808Z,97939.55
2019-03-04T10:14:45.528Z,97916.06
2019-03-04T10:17:25.736Z,97929.55
2019-03-04T10:20:18.165Z,97944.97
2019-03-04T10:23:01.121Z,97929.72
2019-03-04T10:25:35.128Z,97929.32
2019-03-04T10:28:25.834Z,97942.32
2019-03-04T10:31:13.613Z,97943.88
2019-03-04T10:34:11.944Z,97932.69
2019-03-04T10:36:54.999Z,97924.95
2019-03-04T10:39:53.399Z,97919.08
2019-03-04T10:42:45.817Z,97913.64
2019-03-04T10:45:42.367Z,97926.80
2019-03-04T10:48:10.644Z,97930.48
2019-03-04T10:50:38.931Z,97938.25
2019-03-04T10:53:07.225Z,97928.46
2019-03-04T10:55:41.984Z,97927.02
2019-03-04T10:58:05.475Z,97930.92
2019-03-04T11:00:33.763Z,97936.95
2019-03-04T11:03:02.018Z,97924.28
2019-03-04T11:05:30.285Z,97929.83
2019-03-04T11:07:58.572Z,97925.75
2019-03-04T11:10:26.918Z,97907.73
2019-03-04T11:12:55.210Z,97914.17
2019-03-04T11:15:25.224Z,97905.41
2019-03-04T11:17:54.379Z,97907.48
2019-03-04T11:20:22.860Z,97911.88
2019-03-04T11:22:51.154Z,97910.43
2019-03-04T11:25:20.081Z,97911.43
2019-03-04T11:27:48.376Z,97917.05
2019-03-04T11:30:22.506Z,97907.59
2019-03-04T11:32:50.835Z,97900.42
2019-03-04T11:35:19.108Z,97882.99
2019-03-04T11:37:47.422Z,97884.02
2019-03-04T11:40:26.182Z,97877.44
2019-03-04T11:42:54.456Z,97863.75
2019-03-04T11:45:22.723Z,97866.48
2019-03-04T11:47:51.015Z,97851.66
2019-03-04T11:50:19.280Z,97857.94
2019-03-04T11:52:47.563Z,97830.36
2019-03-04T11:55:18.483Z,97845.84
2019-03-04T11:57:46.749Z,97832.61
2019-03-04T12:00:20.000Z,97851.38
2019-03-04T12:02:48.262Z,97898.91
2019-03-04T12:05:16.615Z,97912.13
2019-03-04T12:07:44.894Z,97923.58
2019-03-04T12:10:17.017Z,97980.14
2019-03-04T12:12:45.292Z,97987.13
2019-03-04T12:15:18.602Z,98001.58
2019-03-04T12:17:46.880Z,97985.43
2019-03-04T12:20:15.700Z,98003.83
2019-03-04T12:22:44.037Z,97997.46
2019-03-04T12:25:16.548Z,98005.89
2019-03-04T12:27:44.823Z,98013.27
2019-03-04T12:30:16.298Z,98016.12
2019-03-04T12:32:44.567Z,98006.81
2019-03-04T12:35:13.664Z,98019.55
2019-03-04T12:37:41.961Z,98005.05
2019-03-04T12:40:14.943Z,98005.81
2019-03-04T12:42:43.235Z,97997.15
2019-03-04T12:45:33.715Z,98011.41
2019-03-04T12:47:54.191Z,98006.92
2019-03-04T12:50:30.090Z,98004.45
2019-03-04T12:52:58.850Z,97997.48
2019-03-04T12:55:27.124Z,98016.58
2019-03-04T12:57:55.433Z,98024.70
2019-03-04T13:00:30.546Z,98024.30
2019-03-04T13:02:59.156Z,98026.17
2019-03-04T13:05:27.426Z,98027.69
2019-03-04T13:07:55.701Z,98015.26
2019-03-04T13:10:24.065Z,98027.78
2019-03-04T13:12:52.323Z,98013.84
2019-03-04T13:15:25.354Z,98017.45
2019-03-04T13:17:53.643Z,98025.38
2019-03-04T13:20:23.667Z,98017.23
2019-03-04T13:22:51.927Z,98025.89
2019-03-04T13:25:20.207Z,98026.84
2019-03-04T13:27:48.464Z,98023.09
2019-03-04T13:30:24.534Z,98021.33
2019-03-04T13:32:52.873Z,98014.16
2019-03-04T13:35:26.978Z,98019.00
2019-03-04T13:37:55.237Z,98014.28
2019-03-04T13:40:23.505Z,98012.41
2019-03-04T13:42:51.857Z,97997.13
2019-03-04T13:45:20.135Z,98005.75
2019-03-04T13:47:48.403Z,98012.30
2019-03-04T13:50:19.021Z,98005.97
2019-03-04T13:52:47.279Z,97997.75
2019-03-04T13:55:16.175Z,97992.63
2019-03-04T13:57:44.518Z,98003.03
2019-03-04T14:00:21.836Z,98021.56
2019-03-04T14:02:50.209Z,98026.11
2019-03-04T14:05:20.646Z,98068.89
2019-03-04T14:07:48.920Z,98093.01
2019-03-04T14:10:19.125Z,98091.05
2019-03-04T14:12:47.428Z,98084.09
2019-03-04T14:15:26.824Z,98083.73
2019-03-04T14:17:55.085Z,98089.63
2019-03-04T14:20:23.355Z,98078.72
2019-03-04T14:22:57.573Z,98085.02
2019-03-04T14:25:21.611Z,98081.30
2019-03-04T14:27:49.877Z,98076.06
2019-03-04T14:30:19.586Z,98074.34
2019-03-04T14:32:47.846Z,98084.81
2019-03-04T14:35:16.109Z,98070.22
2019-03-04T14:37:45.021Z,98058.17
2019-03-04T14:40:19.526Z,98058.70
2019-03-04T14:42:47.788Z,98069.45
2019-03-04T14:45:23.620Z,98088.98
2019-03-04T14:47:51.874Z,98072.78
2019-03-04T14:50:21.069Z,98094.47
2019-03-04T14:52:49.330Z,98106.03
2019-03-04T14:55:25.189Z,98121.24
2019-03-04T14:57:54.256Z,98120.30
2019-03-04T15:00:29.510Z,98111.80
2019-03-04T15:02:57.772Z,98110.80
2019-03-04T15:05:26.051Z,98106.42
2019-03-04T15:07:55.657Z,98103.11
2019-03-04T15:10:24.081Z,98106.75
2019-03-04T15:12:52.345Z,98104.86
2019-03-04T15:15:22.550Z,98097.19
2019-03-04T15:17:50.815Z,98104.70
2019-03-04T15:20:21.504Z,98105.88
2019-03-04T15:22:49.771Z,98106.83
2019-03-04T15:25:29.484Z,98103.16
2019-03-04T15:28:06.715Z,98109.53
2019-03-04T15:30:34.991Z,98116.50
2019-03-04T15:33:03.256Z,98129.66
2019-03-04T15:35:31.524Z,98113.39
2019-03-04T15:37:59.813Z,98144.55
2019-03-04T15:40:28.089Z,98140.17
2019-03-04T15:42:56.343Z,98127.20
2019-03-04T15:45:24.707Z,98136.05
2019-03-04T15:47:52.971Z,98116.22
2019-03-04T15:50:21.238Z,98127.68
2019-03-04T15:52:49.501Z,98129.10
2019-03-04T15:55:17.767Z,98127.25
2019-03-04T15:57:46.041Z,98141.66
2019-03-04T16:00:15.741Z,98153.70
2019-03-04T16:02:44.095Z,98144.50
2019-03-04T16:05:13.787Z,98166.02
2019-03-04T16:07:42.075Z,98165.19
2019-03-04T16:10:15.989Z,98163.33
2019-03-04T16:12:44.522Z,98167.25
2019-03-04T16:15:15.984Z,98166.42
2019-03-04T16:17:44.328Z,98180.91
2019-03-04T16:20:17.540Z,98180.91
2019-03-04T16:22:46.651Z,98181.02
2019-03-04T16:25:15.307Z,98172.30
2019-03-04T16:27:43.592Z,98189.41
2019-03-04T16:30:22.550Z,98196.47
2019-03-04T16:32:50.836Z,98183.52
2019-03-04T16:35:19.287Z,98194.44
2019-03-04T16:37:47.567Z,98196.90
2019-03-04T16:40:18.140Z,98204.32
2019-03-04T16:42:46.413Z,98206.33
2019-03-04T16:45:22.449Z,98216.80
2019-03-04T16:47:50.711Z,98217.52
2019-03-04T16:50:24.389Z,98233.08
2019-03-04T16:52:57.607Z,98233.66
2019-03-04T16:55:25.875Z,98238.23
2019-03-04T16:57:54.169Z,98237.66
2019-03-04T17:00:22.516Z,98247.33
2019-03-04T17:02:51.070Z,98245.91
2019-03-04T17:05:20.085Z,98252.52
2019-03-04T17:07:50.825Z,98252.72
2019-03-04T17:10:23.103Z,98254.13
2019-03-04T17:12:51.499Z,98264.49
2019-03-04T17:15:20.658Z,98260.61
2019-03-04T17:17:49.269Z,98262.38
2019-03-04T17:20:18.383Z,98278.39
2019-03-04T17:22:46.849Z,98269.54
2019-03-04T17:25:20.826Z,98278.03
2019-03-04T17:27:49.284Z,98279.33
2019-03-04T17:30:21.223Z,98273.54
2019-03-04T17:32:49.506Z,98274.97
2019-03-04T17:35:19.903Z,98298.52
2019-03-04T17:37:48.197Z,98295.81
2019-03-04T17:40:19.641Z,98297.36
2019-03-04T17:42:47.934Z,98317.73
2019-03-04T17:45:18.418Z,98313.38
2019-03-04T17:47:46.679Z,98319.06
2019-03-04T17:50:18.101Z,98325.40
2019-03-04T17:52:46.368Z,98327.52
2019-03-04T17:55:15.589Z,98333.28
2019-03-04T17:57:43.936Z,98338.58
2019-03-04T18:00:15.001Z,98354.13
2019-03-04T18:02:44.406Z,98352.62
2019-03-04T18:05:13.898Z,98361.11
2019-03-04T18:07:42.167Z,98359.56
2019-03-04T18:10:12.994Z,98365.80
2019-03-04T18:12:41.265Z,98374.75
2019-03-04T18:15:18.284Z,98371.59
2019-03-04T18:17:46.545Z,98380.08
2019-03-04T18:20:15.391Z,98382.92
2019-03-04T18:22:44.713Z,98380.59
2019-03-04T18:25:16.174Z,98402.03
2019-03-04T18:27:47.645Z,98409.46
2019-03-04T18:30:42.986Z,98419.47
2019-03-04T18:33:17.070Z,98421.34
2019-03-04T18:35:51.111Z,98423.57
2019-03-04T18:38:48.953Z,98437.79
2019-03-04T18:41:23.267Z,98449.20
2019-03-04T18:43:54.714Z,98446.84
2019-03-04T18:46:41.258Z,98445.20
2019-03-04T18:49:09.522Z,98454.27
2019-03-04T18:51:37.792Z,98456.50
2019-03-04T18:54:07.508Z,98448.52
2019-03-04T18:56:35.811Z,98464.75
2019-03-04T18:59:04.232Z,98478.90
2019-03-04T19:01:32.499Z,98480.66
2019-03-04T19:04:00.849Z,98486.67
2019-03-04T19:06:29.166Z,98482.31
2019-03-04T19:08:57.435Z,98504.70
2019-03-04T19:11:25.738Z,98514.23
2019-03-04T19:13:54.011Z,98516.31
2019-03-04T19:16:22.285Z,98515.48
2019-03-04T19:18:50.542Z,98524.39
2019-03-04T19:21:18.815Z,98512.94
2019-03-04T19:23:47.148Z,98525.43
2019-03-04T19:26:15.656Z,98539.58
2019-03-04T19:28:43.931Z,98537.20
2019-03-04T19:31:12.262Z,98556.06
2019-03-04T19:33:41.044Z,98546.42
2019-03-04T19:36:09.332Z,98548.44
2019-03-04T19:38:37.622Z,98553.10
2019-03-04T19:41:05.876Z,98546.52
2019-03-04T19:43:34.158Z,98540.31
2019-03-04T19:46:02.512Z,98558.08
2019-03-04T19:48:30.790Z,98553.21
2019-03-04T19:50:59.083Z,98547.56
2019-03-04T19:53:27.376Z,98557.48
2019-03-04T19:55:55.645Z,98556.19
2019-03-04T19:58:23.918Z,98574.09
2019-03-04T20:00:52.212Z,98572.47
2019-03-04T20:03:20.475Z,98576.22
2019-03-04T20:05:48.822Z,98581.69
2019-03-04T20:08:17.112Z,98579.98
2019-03-04T20:10:45.392Z,98588.08
2019-03-04T20:13:13.675Z,98577.44
2019-03-04T20:15:42.004Z,98592.27
2019-03-04T20:18:10.282Z,98597.93
2019-03-04T20:20:38.600Z,98595.84
2019-03-04T20:23:06.873Z,98604.56
2019-03-04T20:25:35.137Z,98611.06
2019-03-04T20:28:03.415Z,98605.05
2019-03-04T20:30:31.699Z,98612.30
2019-03-04T20:32:59.976Z,98609.45
2019-03-04T20:35:28.232Z,98598.30
2019-03-04T20:38:05.141Z,98600.10
2019-03-04T20:40:33.441Z,98607.89
2019-03-04T20:43:01.701Z,98608.35
2019-03-04T20:45:29.981Z,98621.06
2019-03-04T20:47:58.245Z,98608.09
2019-03-04T20:50:26.602Z,98619.62
2019-03-04T20:52:54.882Z,98622.53
2019-03-04T20:55:23.312Z,98626.36
2019-03-04T20:57:51.565Z,98662.17
2019-03-04T21:00:36.748Z,98619.45
2019-03-04T21:03:06.259Z,98630.41
2019-03-04T21:05:36.067Z,98639.84
2019-03-04T21:08:04.467Z,98645.26
2019-03-04T21:10:32.748Z,98642.33
2019-03-04T21:13:02.782Z,98645.92
2019-03-04T21:15:31.017Z,98649.12
2019-03-04T21:17:59.276Z,98655.16
2019-03-04T21:20:27.574Z,98654.28
2019-03-04T21:22:55.846Z,98646.69
2019-03-04T21:25:53.767Z,98659.70
2019-03-04T21:28:27.908Z,98690.04
2019-03-04T21:31:10.999Z,98672.08
2019-03-04T21:34:07.251Z,98680.23
2019-03-04T21:37:14.830Z,98682.46
2019-03-04T21:39:49.185Z,98700.02
2019-03-04T21:42:26.410Z,98697.98
2019-03-04T21:45:00.735Z,98714.77
2019-03-04T21:47:35.056Z,98714.77
2019-03-04T21:50:04.289Z,98716.11
2019-03-04T21:52:35.741Z,98724.66
2019-03-04T21:55:09.862Z,98723.42
2019-03-04T21:57:41.785Z,98734.12
2019-03-04T22:00:13.316Z,98724.77
2019-03-04T22:02:47.912Z,98731.21
2019-03-04T22:05:17.820Z,98730.64
2019-03-04T22:07:46.333Z,98737.91
2019-03-04T22:10:14.849Z,98741.28
2019-03-04T22:12:43.368Z,98750.11
2019-03-04T22:15:11.714Z,98757.32
2019-03-04T22:17:40.046Z,98739.57
2019-03-04T22:20:10.861Z,98786.44
2019-03-04T22:22:39.136Z,98754.26
2019-03-04T22:25:10.248Z,98752.88
2019-03-04T22:27:38.529Z,98763.34
2019-03-04T22:30:12.734Z,98762.05
2019-03-04T22:32:41.028Z,98776.48
2019-03-04T22:35:11.719Z,98775.13
2019-03-04T22:37:40.037Z,98763.66
2019-03-04T22:40:14.761Z,98783.80
2019-03-04T22:42:43.098Z,98794.78
2019-03-04T22:45:15.921Z,98787.97
2019-03-04T22:47:44.442Z,98798.56
2019-03-04T22:50:14.844Z,98803.76
2019-03-04T22:52:43.113Z,98807.16
2019-03-04T22:55:14.910Z,98822.73
2019-03-04T22:57:43.168Z,98826.86
2019-03-04T23:00:53.618Z,98830.00
2019-03-04T23:03:26.783Z,98828.23
2019-03-04T23:06:15.612Z,98843.08
2019-03-04T23:08:43.884Z,98846.14
2019-03-04T23:11:12.145Z,98852.84
2019-03-04T23:13:55.764Z,98834.04
2019-03-04T23:16:27.197Z,98846.19
2019-03-04T23:18:55.475Z,98852.38
2019-03-04T23:21:23.746Z,98858.70
2019-03-04T23:23:52.073Z,98851.38
2019-03-04T23:26:20.307Z,98863.78
2019-03-04T23:28:48.572Z,98861.19
2019-03-04T23:31:16.854Z,98861.12
2019-03-04T23:33:45.137Z,98861.49
2019-03-04T23:36:13.414Z,98854.08
2019-03-04T23:38:41.678Z,98867.15
2019-03-04T23:41:09.946Z,98871.41
2019-03-04T23:43:38.216Z,98870.45
2019-03-04T23:46:06.499Z,98870.84
2019-03-04T23:48:34.758Z,98881.69
2019-03-04T23:51:03.072Z,98879.20
2019-03-04T23:53:31.433Z,98877.30
2019-03-04T23:55:59.709Z,98870.18
2019-03-04T23:58:28.001Z,98876.47
